createdAt,value
2023-05-14T00:03:32.528Z,58.49
2023-05-14T00:05:59.520Z,58.49
2023-05-14T00:08:26.367Z,59.45
2023-05-14T00:10:53.188Z,57.66
2023-05-14T00:13:20.032Z,57.48
2023-05-14T00:15:46.804Z,56.75
2023-05-14T00:18:13.634Z,56.13
2023-05-14T00:20:40.991Z,55.63
2023-05-14T00:23:08.933Z,55.94
2023-05-14T00:25:36.474Z,56.17
2023-05-14T00:28:04.009Z,55.54
2023-05-14T00:30:30.787Z,55.62
2023-05-14T00:32:57.682Z,56.28
2023-05-14T00:35:24.595Z,56.47
2023-05-14T00:37:51.417Z,56.05
2023-05-14T00:40:18.501Z,56.02
2023-05-14T00:42:46.335Z,55.76
2023-05-14T00:45:13.499Z,56.00
2023-05-14T00:47:41.010Z,55.63
2023-05-14T00:50:08.865Z,55.55
2023-05-14T00:52:37.651Z,55.90
2023-05-14T00:55:06.839Z,56.27
2023-05-14T00:57:36.150Z,55.55
2023-05-14T01:00:04.098Z,55.63
2023-05-14T01:02:30.904Z,55.48
2023-05-14T01:04:58.283Z,55.29
2023-05-14T01:07:52.572Z,55.24
2023-05-14T01:10:36.990Z,55.34
2023-05-14T01:13:42.326Z,55.77
2023-05-14T01:16:13.772Z,55.95
2023-05-14T01:18:43.361Z,55.74
2023-05-14T01:21:35.227Z,55.53
2023-05-14T01:24:02.341Z,55.55
2023-05-14T01:26:31.440Z,55.09
2023-05-14T01:29:17.246Z,55.73
2023-05-14T01:31:47.253Z,56.34
2023-05-14T01:34:15.884Z,56.23
2023-05-14T01:36:44.010Z,57.48
2023-05-14T01:39:12.189Z,57.21
2023-05-14T01:41:40.021Z,57.48
2023-05-14T01:44:07.036Z,56.71
2023-05-14T01:46:34.134Z,57.16
2023-05-14T01:49:01.222Z,57.91
2023-05-14T01:51:28.295Z,58.28
2023-05-14T01:53:55.157Z,57.57
2023-05-14T01:56:23.874Z,57.22
2023-05-14T01:58:50.630Z,56.83
2023-05-14T02:01:17.674Z,56.72
2023-05-14T02:03:44.911Z,56.67
2023-05-14T02:06:11.998Z,56.57
2023-05-14T02:08:39.085Z,56.25
2023-05-14T02:11:05.923Z,56.84
2023-05-14T02:13:32.670Z,57.02
2023-05-14T02:15:59.531Z,57.05
2023-05-14T02:18:26.222Z,56.38
2023-05-14T02:20:53.178Z,57.46
2023-05-14T02:23:25.604Z,57.79
2023-05-14T02:25:58.033Z,57.37
2023-05-14T02:28:24.868Z,57.01
2023-05-14T02:30:51.796Z,57.48
2023-05-14T02:33:18.730Z,57.28
2023-05-14T02:35:45.523Z,57.21
2023-05-14T02:38:13.323Z,56.99
2023-05-14T02:40:40.130Z,57.68
2023-05-14T02:43:07.064Z,57.04
2023-05-14T02:45:33.899Z,56.61
2023-05-14T02:48:00.728Z,57.12
2023-05-14T02:50:27.909Z,56.51
2023-05-14T02:52:54.785Z,56.71
2023-05-14T02:55:26.375Z,57.16
2023-05-14T02:57:53.413Z,56.97
2023-05-14T03:00:20.752Z,57.63
2023-05-14T03:02:48.514Z,57.77
2023-05-14T03:05:15.913Z,56.88
2023-05-14T03:07:42.749Z,56.82
2023-05-14T03:10:09.875Z,57.02
2023-05-14T03:12:36.743Z,56.89
2023-05-14T03:15:04.015Z,57.08
2023-05-14T03:17:30.947Z,57.09
2023-05-14T03:19:57.715Z,56.66
2023-05-14T03:22:24.577Z,56.62
2023-05-14T03:24:51.265Z,56.68
2023-05-14T03:27:18.048Z,56.93
2023-05-14T03:29:45.900Z,57.42
2023-05-14T03:32:12.904Z,57.91
2023-05-14T03:34:40.061Z,57.58
2023-05-14T03:37:07.104Z,57.71
2023-05-14T03:39:34.031Z,57.94
2023-05-14T03:42:01.344Z,58.20
2023-05-14T03:44:28.743Z,57.33
2023-05-14T03:46:56.212Z,57.65
2023-05-14T03:49:25.519Z,57.76
2023-05-14T03:51:52.343Z,57.51
2023-05-14T03:54:19.332Z,57.28
2023-05-14T03:56:46.297Z,58.00
2023-05-14T03:59:13.493Z,58.59
2023-05-14T04:01:40.253Z,58.36
2023-05-14T04:04:07.334Z,57.91
2023-05-14T04:06:35.123Z,57.90
2023-05-14T04:09:03.450Z,58.56
2023-05-14T04:11:31.072Z,58.54
2023-05-14T04:13:59.590Z,58.35
2023-05-14T04:16:26.722Z,58.12
2023-05-14T04:18:53.790Z,58.04
2023-05-14T04:21:21.211Z,58.40
2023-05-14T04:23:48.117Z,57.66
2023-05-14T04:26:14.925Z,58.18
2023-05-14T04:28:41.705Z,57.94
2023-05-14T04:31:08.639Z,58.40
2023-05-14T04:33:35.506Z,57.45
2023-05-14T04:36:04.953Z,58.08
2023-05-14T04:38:32.124Z,57.25
2023-05-14T04:40:59.093Z,57.59
2023-05-14T04:43:25.994Z,57.38
2023-05-14T04:45:52.927Z,57.70
2023-05-14T04:48:19.900Z,57.41
2023-05-14T04:50:47.197Z,57.26
2023-05-14T04:53:14.069Z,57.71
2023-05-14T04:55:40.910Z,58.54
2023-05-14T04:58:07.850Z,58.54
2023-05-14T05:00:34.829Z,58.96
2023-05-14T05:03:01.622Z,57.97
2023-05-14T05:05:28.730Z,58.45
2023-05-14T05:07:55.962Z,58.56
2023-05-14T05:10:23.199Z,58.99
2023-05-14T05:12:50.480Z,58.53
2023-05-14T05:15:17.393Z,57.99
2023-05-14T05:17:44.308Z,58.79
2023-05-14T05:20:11.772Z,59.16
2023-05-14T05:22:38.700Z,59.38
2023-05-14T05:25:06.406Z,58.35
2023-05-14T05:27:33.869Z,58.28
2023-05-14T05:30:04.222Z,59.47
2023-05-14T05:32:31.359Z,58.11
2023-05-14T05:35:01.538Z,58.56
2023-05-14T05:37:28.624Z,58.36
2023-05-14T05:39:55.574Z,58.78
2023-05-14T05:42:22.725Z,57.94
2023-05-14T05:44:49.534Z,57.74
2023-05-14T05:47:17.179Z,57.53
2023-05-14T05:49:44.087Z,57.38
2023-05-14T05:52:11.139Z,56.77
2023-05-14T05:54:39.976Z,56.78
2023-05-14T05:57:07.162Z,56.83
2023-05-14T05:59:34.316Z,56.65
2023-05-14T06:02:01.434Z,56.56
2023-05-14T06:04:28.820Z,56.32
2023-05-14T06:06:56.614Z,55.66
2023-05-14T06:09:24.117Z,55.91
2023-05-14T06:11:51.388Z,55.02
2023-05-14T06:14:21.427Z,55.40
2023-05-14T06:16:50.149Z,55.26
2023-05-14T06:19:17.151Z,54.86
2023-05-14T06:21:44.442Z,54.42
2023-05-14T06:24:11.900Z,54.77
2023-05-14T06:26:38.823Z,54.30
2023-05-14T06:29:06.416Z,53.19
2023-05-14T06:31:34.012Z,53.09
2023-05-14T06:34:00.998Z,53.50
2023-05-14T06:36:28.063Z,53.76
2023-05-14T06:38:55.229Z,54.99
2023-05-14T06:41:22.920Z,55.13
2023-05-14T06:43:50.761Z,53.97
2023-05-14T06:46:47.962Z,54.12
2023-05-14T06:49:16.719Z,51.83
2023-05-14T06:51:49.626Z,52.23
2023-05-14T06:54:20.615Z,51.05
2023-05-14T06:56:52.080Z,51.72
2023-05-14T06:59:20.464Z,50.91
2023-05-14T07:01:49.188Z,50.81
2023-05-14T07:04:17.154Z,50.90
2023-05-14T07:06:55.986Z,52.44
2023-05-14T07:09:28.333Z,50.02
2023-05-14T07:12:09.160Z,49.87
2023-05-14T07:14:39.503Z,49.32
2023-05-14T07:17:09.133Z,48.66
2023-05-14T07:19:37.560Z,48.66
2023-05-14T07:22:05.687Z,47.41
2023-05-14T07:24:33.298Z,45.93
2023-05-14T07:27:02.264Z,46.82
2023-05-14T07:29:30.378Z,46.55
2023-05-14T07:31:59.759Z,46.46
2023-05-14T07:34:27.964Z,46.80
2023-05-14T07:37:00.691Z,47.57
2023-05-14T07:39:29.625Z,45.93
2023-05-14T07:41:58.000Z,46.02
2023-05-14T07:44:27.660Z,46.00
2023-05-14T07:46:55.754Z,45.63
2023-05-14T07:49:24.422Z,46.15
2023-05-14T07:51:54.511Z,45.26
2023-05-14T07:54:25.322Z,46.78
2023-05-14T07:56:52.356Z,46.64
2023-05-14T07:59:19.896Z,48.05
2023-05-14T08:01:47.012Z,46.66
2023-05-14T08:04:16.385Z,45.62
2023-05-14T08:06:43.410Z,45.41
2023-05-14T08:09:10.351Z,46.06
2023-05-14T08:11:39.384Z,45.49
2023-05-14T08:14:06.761Z,46.99
2023-05-14T08:16:33.817Z,45.56
2023-05-14T08:19:01.501Z,46.38
2023-05-14T08:21:29.674Z,46.74
2023-05-14T08:23:56.699Z,44.80
2023-05-14T08:26:24.170Z,44.26
2023-05-14T08:28:51.403Z,43.15
2023-05-14T08:31:18.775Z,43.77
2023-05-14T08:33:46.537Z,43.12
2023-05-14T08:36:14.595Z,42.90
2023-05-14T08:38:42.552Z,44.70
2023-05-14T08:41:11.772Z,43.06
2023-05-14T08:43:50.502Z,41.85
2023-05-14T08:46:18.250Z,41.89
2023-05-14T08:48:53.374Z,42.64
2023-05-14T08:51:20.514Z,41.73
2023-05-14T08:53:48.677Z,42.74
2023-05-14T08:56:18.330Z,40.99
2023-05-14T08:58:46.342Z,44.07
2023-05-14T09:01:13.288Z,43.71
2023-05-14T09:03:42.336Z,44.76
2023-05-14T09:06:10.788Z,44.26
2023-05-14T09:08:38.899Z,41.41
2023-05-14T09:11:05.875Z,41.79
2023-05-14T09:13:32.814Z,40.48
2023-05-14T09:16:00.889Z,40.70
2023-05-14T09:18:27.952Z,41.48
2023-05-14T09:20:54.902Z,40.79
2023-05-14T09:23:21.810Z,40.12
2023-05-14T09:25:48.836Z,42.46
2023-05-14T09:28:17.301Z,40.39
2023-05-14T09:30:51.680Z,40.52
2023-05-14T09:33:29.168Z,41.62
2023-05-14T09:36:01.605Z,41.89
2023-05-14T09:38:30.418Z,44.08
2023-05-14T09:40:58.181Z,45.34
2023-05-14T09:43:26.062Z,45.74
2023-05-14T09:45:53.214Z,45.08
2023-05-14T09:48:20.515Z,46.54
2023-05-14T09:50:47.348Z,45.89
2023-05-14T09:53:14.718Z,45.15
2023-05-14T09:55:42.022Z,43.67
2023-05-14T09:58:09.102Z,42.42
2023-05-14T10:00:36.438Z,43.43
2023-05-14T10:03:08.351Z,45.05
2023-05-14T10:05:38.843Z,43.83
2023-05-14T10:08:13.428Z,45.36
2023-05-14T10:10:40.886Z,44.83
2023-05-14T10:13:14.978Z,43.33
2023-05-14T10:16:14.348Z,41.29
2023-05-14T10:18:48.953Z,39.73
2023-05-14T10:21:24.034Z,43.80
2023-05-14T10:23:54.042Z,42.37
2023-05-14T10:26:24.009Z,43.05
2023-05-14T10:28:51.209Z,44.46
2023-05-14T10:31:22.833Z,42.60
2023-05-14T10:33:55.772Z,40.79
2023-05-14T10:36:24.012Z,42.77
2023-05-14T10:38:57.491Z,42.67
2023-05-14T10:41:25.244Z,42.81
2023-05-14T10:43:52.652Z,42.24
2023-05-14T10:46:20.384Z,40.71
2023-05-14T10:48:48.379Z,39.52
2023-05-14T10:51:17.620Z,40.00
2023-05-14T10:53:45.201Z,39.20
2023-05-14T10:56:13.839Z,39.76
2023-05-14T10:58:44.080Z,39.62
2023-05-14T11:01:12.911Z,41.86
2023-05-14T11:03:41.914Z,40.57
2023-05-14T11:06:10.815Z,41.74
2023-05-14T11:08:38.920Z,40.78
2023-05-14T11:11:07.060Z,39.99
2023-05-14T11:13:34.790Z,39.88
2023-05-14T11:16:11.993Z,41.83
2023-05-14T11:18:54.963Z,42.26
2023-05-14T11:21:21.996Z,41.06
2023-05-14T11:23:49.105Z,38.98
2023-05-14T11:26:16.503Z,40.37
2023-05-14T11:28:44.638Z,40.22
2023-05-14T11:31:11.776Z,40.64
2023-05-14T11:33:40.252Z,38.82
2023-05-14T11:36:07.126Z,39.13
2023-05-14T11:38:33.986Z,36.62
2023-05-14T11:41:01.470Z,35.95
2023-05-14T11:43:29.474Z,37.76
2023-05-14T11:45:56.995Z,38.42
2023-05-14T11:48:34.935Z,38.06
2023-05-14T11:51:04.833Z,34.64
2023-05-14T11:53:32.530Z,34.99
2023-05-14T11:55:59.880Z,34.10
2023-05-14T11:58:26.776Z,34.49
2023-05-14T12:00:56.124Z,36.51
2023-05-14T12:03:26.390Z,37.47
2023-05-14T12:05:57.734Z,37.97
2023-05-14T12:08:31.925Z,40.82
2023-05-14T12:11:00.846Z,35.37
2023-05-14T12:13:30.110Z,35.20
2023-05-14T12:16:02.220Z,34.51
2023-05-14T12:18:31.767Z,37.66
2023-05-14T12:21:08.397Z,34.07
2023-05-14T12:23:35.840Z,33.66
2023-05-14T12:26:06.158Z,35.62
2023-05-14T12:28:38.872Z,33.78
2023-05-14T12:31:06.019Z,33.57
2023-05-14T12:33:32.866Z,34.51
2023-05-14T12:38:33.170Z,33.10
2023-05-14T12:41:01.908Z,33.33
2023-05-14T12:43:31.582Z,32.42
2023-05-14T12:45:58.292Z,31.35
2023-05-14T12:48:25.151Z,32.72
2023-05-14T12:50:52.101Z,32.08
2023-05-14T12:53:18.976Z,32.61
2023-05-14T12:55:46.831Z,33.48
2023-05-14T12:58:13.800Z,32.95
2023-05-14T13:00:40.756Z,31.46
2023-05-14T13:03:08.116Z,32.13
2023-05-14T13:05:35.090Z,31.42
2023-05-14T13:08:04.030Z,32.42
2023-05-14T13:10:30.861Z,34.28
2023-05-14T13:12:58.246Z,35.67
2023-05-14T13:15:25.475Z,33.52
2023-05-14T13:17:52.596Z,33.90
2023-05-14T13:20:20.144Z,37.18
2023-05-14T13:22:46.993Z,35.55
2023-05-14T13:25:13.889Z,34.30
2023-05-14T13:27:41.240Z,37.30
2023-05-14T13:30:08.591Z,38.88
2023-05-14T13:32:35.939Z,40.33
2023-05-14T13:35:02.726Z,40.25
2023-05-14T13:37:29.534Z,39.49
2023-05-14T13:39:56.384Z,40.93
2023-05-14T13:42:23.808Z,39.33
2023-05-14T13:44:50.873Z,37.29
2023-05-14T13:47:17.872Z,37.61
2023-05-14T13:49:44.736Z,38.36
2023-05-14T13:52:11.771Z,40.49
2023-05-14T13:54:38.669Z,39.20
2023-05-14T13:57:06.078Z,37.97
2023-05-14T13:59:33.047Z,40.17
2023-05-14T14:02:00.083Z,41.57
2023-05-14T14:04:29.367Z,44.07
2023-05-14T14:06:56.781Z,41.88
2023-05-14T14:09:24.374Z,39.82
2023-05-14T14:11:51.583Z,39.84
2023-05-14T14:14:18.927Z,42.03
2023-05-14T14:16:45.926Z,42.57
2023-05-14T14:19:12.767Z,43.96
2023-05-14T14:21:43.022Z,43.49
2023-05-14T14:24:10.117Z,44.98
2023-05-14T14:26:37.115Z,46.43
2023-05-14T14:29:04.286Z,45.57
2023-05-14T14:31:31.240Z,43.78
2023-05-14T14:33:58.122Z,43.02
2023-05-14T14:36:24.901Z,46.38
2023-05-14T14:38:51.709Z,48.31
2023-05-14T14:41:18.738Z,47.30
2023-05-14T14:43:45.731Z,49.91
2023-05-14T14:46:12.879Z,49.65
2023-05-14T14:48:43.482Z,52.26
2023-05-14T14:51:10.355Z,51.36
2023-05-14T14:53:37.358Z,52.26
2023-05-14T14:56:04.867Z,52.71
2023-05-14T14:58:32.283Z,52.58
2023-05-14T15:00:59.629Z,52.64
2023-05-14T15:03:29.229Z,53.67
2023-05-14T15:05:56.389Z,53.86
2023-05-14T15:08:27.536Z,52.69
2023-05-14T15:10:57.727Z,53.15
2023-05-14T15:13:25.150Z,53.47
2023-05-14T15:15:55.452Z,54.88
2023-05-14T15:18:22.267Z,53.20
2023-05-14T15:20:49.677Z,54.69
2023-05-14T15:23:17.809Z,55.50
2023-05-14T15:25:44.825Z,54.35
2023-05-14T15:28:12.996Z,54.73
2023-05-14T15:30:41.399Z,55.84
2023-05-14T15:33:09.025Z,56.14
2023-05-14T15:35:36.518Z,56.48
2023-05-14T15:38:03.699Z,56.70
2023-05-14T15:40:30.752Z,56.21
2023-05-14T15:42:57.463Z,57.05
2023-05-14T15:45:24.261Z,57.20
2023-05-14T15:47:51.187Z,56.27
2023-05-14T15:50:18.169Z,55.85
2023-05-14T15:52:44.989Z,56.95
2023-05-14T15:55:12.081Z,56.41
2023-05-14T15:57:39.066Z,55.25
2023-05-14T16:00:12.344Z,56.17
2023-05-14T16:02:40.203Z,57.22
2023-05-14T16:05:07.891Z,57.25
2023-05-14T16:07:37.016Z,57.42
2023-05-14T16:10:04.977Z,59.42
2023-05-14T16:12:32.191Z,60.43
2023-05-14T16:15:00.073Z,59.38
2023-05-14T16:17:28.596Z,58.65
2023-05-14T16:19:56.412Z,58.82
2023-05-14T16:22:23.588Z,58.45
2023-05-14T16:24:50.498Z,58.39
2023-05-14T16:27:19.237Z,57.06
2023-05-14T16:29:46.160Z,56.91
2023-05-14T16:32:13.080Z,56.86
2023-05-14T16:34:40.742Z,55.98
2023-05-14T16:37:08.094Z,56.72
2023-05-14T16:39:34.940Z,56.62
2023-05-14T16:42:02.200Z,56.63
2023-05-14T16:44:29.987Z,57.31
2023-05-14T16:46:56.803Z,56.73
2023-05-14T16:49:23.653Z,56.02
2023-05-14T16:51:50.376Z,54.51
2023-05-14T16:54:17.268Z,56.54
2023-05-14T16:56:48.206Z,56.22
2023-05-14T16:59:16.103Z,56.14
2023-05-14T17:01:43.881Z,56.37
2023-05-14T17:04:11.034Z,55.01
2023-05-14T17:06:37.927Z,55.75
2023-05-14T17:09:05.318Z,56.40
2023-05-14T17:11:32.227Z,56.23
2023-05-14T17:13:59.039Z,57.50
2023-05-14T17:16:27.121Z,56.60
2023-05-14T17:18:54.140Z,56.50
2023-05-14T17:21:21.147Z,56.15
2023-05-14T17:23:47.965Z,55.13
2023-05-14T17:26:14.825Z,56.72
2023-05-14T17:28:41.714Z,56.59
2023-05-14T17:31:08.765Z,57.01
2023-05-14T17:33:36.046Z,56.82
2023-05-14T17:36:03.576Z,56.98
2023-05-14T17:38:30.408Z,56.47
2023-05-14T17:40:57.463Z,57.08
2023-05-14T17:43:24.185Z,58.61
2023-05-14T17:45:54.296Z,57.24
2023-05-14T17:48:22.935Z,57.06
2023-05-14T17:50:51.674Z,57.65
2023-05-14T17:53:18.596Z,56.74
2023-05-14T17:55:45.506Z,56.26
2023-05-14T17:58:14.431Z,56.24
2023-05-14T18:00:42.455Z,56.75
2023-05-14T18:03:10.435Z,56.68
2023-05-14T18:05:37.507Z,56.35
2023-05-14T18:08:04.599Z,57.08
2023-05-14T18:10:31.464Z,57.17
2023-05-14T18:12:58.233Z,57.81
2023-05-14T18:15:25.860Z,56.81
2023-05-14T18:17:53.421Z,56.87
2023-05-14T18:20:23.668Z,57.83
2023-05-14T18:22:51.453Z,56.46
2023-05-14T18:25:18.379Z,56.70
2023-05-14T18:27:45.515Z,56.27
2023-05-14T18:30:14.712Z,56.51
2023-05-14T18:32:43.827Z,57.98
2023-05-14T18:35:11.882Z,57.88
2023-05-14T18:37:39.493Z,57.89
2023-05-14T18:40:07.673Z,57.06
2023-05-14T18:42:34.991Z,57.12
2023-05-14T18:45:02.673Z,57.03
2023-05-14T18:47:29.876Z,58.26
2023-05-14T18:49:59.380Z,58.75
2023-05-14T18:52:26.758Z,59.04
2023-05-14T18:54:54.855Z,59.79
2023-05-14T18:57:22.422Z,58.60
2023-05-14T18:59:49.715Z,58.68
2023-05-14T19:02:17.762Z,59.14
2023-05-14T19:04:52.343Z,58.92
2023-05-14T19:07:21.544Z,60.09
2023-05-14T19:09:49.327Z,59.41
2023-05-14T19:12:17.566Z,59.55
2023-05-14T19:14:44.687Z,59.55
2023-05-14T19:17:12.417Z,59.95
2023-05-14T19:19:39.531Z,59.67
2023-05-14T19:22:06.977Z,60.69
2023-05-14T19:24:34.238Z,60.54
2023-05-14T19:27:01.418Z,61.54
2023-05-14T19:29:28.807Z,60.64
2023-05-14T19:31:55.981Z,60.88
2023-05-14T19:34:23.175Z,61.49
2023-05-14T19:36:50.829Z,60.71
2023-05-14T19:39:19.731Z,60.07
2023-05-14T19:41:46.938Z,61.01
2023-05-14T19:44:14.235Z,61.32
2023-05-14T19:46:41.502Z,61.08
2023-05-14T19:49:08.324Z,61.70
2023-05-14T19:51:35.429Z,61.32
2023-05-14T19:54:02.443Z,61.37
2023-05-14T19:56:32.122Z,61.93
2023-05-14T19:59:03.523Z,62.40
2023-05-14T20:01:34.534Z,62.77
2023-05-14T20:04:06.432Z,61.79
2023-05-14T20:06:34.348Z,61.51
2023-05-14T20:09:04.731Z,61.35
2023-05-14T20:11:36.736Z,62.42
2023-05-14T20:14:03.874Z,61.65
2023-05-14T20:16:31.750Z,63.17
2023-05-14T20:18:58.685Z,61.93
2023-05-14T20:21:25.572Z,61.54
2023-05-14T20:23:52.548Z,62.07
2023-05-14T20:26:19.347Z,62.15
2023-05-14T20:28:46.193Z,62.63
2023-05-14T20:31:13.238Z,62.49
2023-05-14T20:33:40.708Z,63.24
2023-05-14T20:36:07.634Z,62.12
2023-05-14T20:38:35.447Z,63.46
2023-05-14T20:41:02.425Z,63.33
2023-05-14T20:43:29.449Z,62.12
2023-05-14T20:45:57.385Z,62.54
2023-05-14T20:48:24.099Z,61.99
2023-05-14T20:50:51.194Z,62.26
2023-05-14T20:53:18.859Z,62.22
2023-05-14T20:55:45.918Z,62.31
2023-05-14T20:58:12.637Z,62.18
2023-05-14T21:00:39.408Z,62.51
2023-05-14T21:03:06.319Z,62.09
2023-05-14T21:05:33.225Z,62.97
2023-05-14T21:08:00.167Z,62.45
2023-05-14T21:10:27.124Z,63.47
2023-05-14T21:12:54.131Z,62.92
2023-05-14T21:15:20.933Z,63.29
2023-05-14T21:17:47.714Z,62.39
2023-05-14T21:20:15.767Z,63.68
2023-05-14T21:22:42.672Z,64.51
2023-05-14T21:25:09.971Z,63.55
2023-05-14T21:27:37.318Z,63.91
2023-05-14T21:30:04.513Z,63.13
2023-05-14T21:32:31.273Z,63.24
2023-05-14T21:34:58.142Z,63.78
2023-05-14T21:37:25.050Z,63.73
2023-05-14T21:39:51.797Z,63.37
2023-05-14T21:42:21.066Z,64.21
2023-05-14T21:44:47.969Z,64.02
2023-05-14T21:47:16.165Z,63.10
2023-05-14T21:49:43.413Z,63.36
2023-05-14T21:52:10.862Z,64.60
2023-05-14T21:54:37.737Z,63.24
2023-05-14T21:57:04.804Z,63.77
2023-05-14T21:59:31.552Z,63.43
2023-05-14T22:04:28.512Z,63.25
2023-05-14T22:06:55.700Z,62.46
2023-05-14T22:09:22.527Z,62.84
2023-05-14T22:11:49.451Z,62.48
2023-05-14T22:14:16.265Z,63.26
2023-05-14T22:16:43.091Z,64.41
2023-05-14T22:19:09.947Z,63.97
2023-05-14T22:21:36.822Z,63.91
2023-05-14T22:24:03.732Z,62.90
2023-05-14T22:26:30.688Z,63.59
2023-05-14T22:28:57.743Z,63.77
2023-05-14T22:31:24.819Z,63.29
2023-05-14T22:33:51.680Z,63.46
2023-05-14T22:36:18.995Z,63.12
2023-05-14T22:38:46.899Z,63.89
2023-05-14T22:41:13.675Z,62.63
2023-05-14T22:43:41.147Z,63.20
2023-05-14T22:46:08.138Z,62.93
2023-05-14T22:48:35.053Z,63.32
2023-05-14T22:51:01.780Z,63.46
2023-05-14T22:53:28.542Z,63.24
2023-05-14T22:55:55.313Z,62.78
2023-05-14T22:58:22.199Z,63.26
2023-05-14T23:00:49.032Z,62.60
2023-05-14T23:03:16.110Z,63.32
2023-05-14T23:05:43.023Z,62.31
2023-05-14T23:08:10.969Z,62.89
2023-05-14T23:10:37.716Z,63.20
2023-05-14T23:13:06.649Z,63.00
2023-05-14T23:15:33.590Z,62.83
2023-05-14T23:18:00.693Z,63.61
2023-05-14T23:20:27.529Z,63.78
2023-05-14T23:22:54.421Z,64.33
2023-05-14T23:25:21.350Z,64.44
2023-05-14T23:27:48.252Z,66.15
2023-05-14T23:30:15.293Z,64.62
2023-05-14T23:32:42.212Z,63.95
2023-05-14T23:35:09.912Z,63.50
2023-05-14T23:37:41.781Z,64.46
2023-05-14T23:40:09.650Z,64.39
2023-05-14T23:42:36.451Z,64.28
2023-05-14T23:45:03.651Z,63.26
2023-05-14T23:47:30.668Z,64.54
2023-05-14T23:49:57.607Z,64.00
2023-05-14T23:52:24.404Z,64.36
2023-05-14T23:54:51.327Z,64.52
2023-05-14T23:57:18.405Z,66.72
2023-05-14T23:59:46.140Z,65.94
